地図

経路データ

SID SEASON NUMBER BASIN SUBBASIN NAME ISO_TIME NATURE LAT LON WMO_WIND WMO_PRES WMO_AGENCY TRACK_TYPE DIST2LAND LANDFALL IFLAG USA_AGENCY USA_ATCF_ID USA_LAT USA_LON USA_RECORD USA_STATUS USA_WIND USA_PRES USA_SSHS USA_R34_NE USA_R34_SE USA_R34_SW USA_R34_NW USA_R50_NE USA_R50_SE USA_R50_SW USA_R50_NW USA_R64_NE USA_R64_SE USA_R64_SW USA_R64_NW USA_POCI USA_ROCI USA_RMW USA_EYE TOKYO_LAT TOKYO_LON TOKYO_GRADE TOKYO_WIND TOKYO_PRES TOKYO_R50_DIR TOKYO_R50_LONG TOKYO_R50_SHORT TOKYO_R30_DIR TOKYO_R30_LONG TOKYO_R30_SHORT TOKYO_LAND CMA_LAT CMA_LON CMA_CAT CMA_WIND CMA_PRES HKO_LAT HKO_LON HKO_CAT HKO_WIND HKO_PRES NEWDELHI_LAT NEWDELHI_LON NEWDELHI_GRADE NEWDELHI_WIND NEWDELHI_PRES NEWDELHI_CI NEWDELHI_DP NEWDELHI_POCI REUNION_LAT REUNION_LON REUNION_TYPE REUNION_WIND REUNION_PRES REUNION_TNUM REUNION_CI REUNION_RMW REUNION_R34_NE REUNION_R34_SE REUNION_R34_SW REUNION_R34_NW REUNION_R50_NE REUNION_R50_SE REUNION_R50_SW REUNION_R50_NW REUNION_R64_NE REUNION_R64_SE REUNION_R64_SW REUNION_R64_NW BOM_LAT BOM_LON BOM_TYPE BOM_WIND BOM_PRES BOM_TNUM BOM_CI BOM_RMW BOM_R34_NE BOM_R34_SE BOM_R34_SW BOM_R34_NW BOM_R50_NE BOM_R50_SE BOM_R50_SW BOM_R50_NW BOM_R64_NE BOM_R64_SE BOM_R64_SW BOM_R64_NW BOM_ROCI BOM_POCI BOM_EYE BOM_POS_METHOD BOM_PRES_METHOD NADI_LAT NADI_LON NADI_CAT NADI_WIND NADI_PRES WELLINGTON_LAT WELLINGTON_LON WELLINGTON_WIND WELLINGTON_PRES DS824_LAT DS824_LON DS824_STAGE DS824_WIND DS824_PRES TD9636_LAT TD9636_LON TD9636_STAGE TD9636_WIND TD9636_PRES TD9635_LAT TD9635_LON TD9635_WIND TD9635_PRES TD9635_ROCI NEUMANN_LAT NEUMANN_LON NEUMANN_CLASS NEUMANN_WIND NEUMANN_PRES MLC_LAT MLC_LON MLC_CLASS MLC_WIND MLC_PRES USA_GUST BOM_GUST BOM_GUST_PER REUNION_GUST REUNION_GUST_PER USA_SEAHGT USA_SEARAD_NE USA_SEARAD_SE USA_SEARAD_SW USA_SEARAD_NW STORM_SPEED STORM_DIR
1899241N17303 1899 29 NA NA NOT_NAMED 1899-08-29 06:00:00 TS 16.8000 -57.3000 60 hurdat_atl main 791 760 O_____________ hurdat_atl AL041899 16.8000 -57.3000 TS 60 0 11 270
1899241N17303 1899 29 NA NA NOT_NAMED 1899-08-29 09:00:00 TS 16.8003 -57.8975 main 760 734 P_____________ AL041899 16.8003 -57.8975 TS 60 0 11 270
1899241N17303 1899 29 NA NA NOT_NAMED 1899-08-29 12:00:00 TS 16.8000 -58.5000 60 hurdat_atl main 734 706 O_____________ hurdat_atl AL041899 16.8000 -58.5000 TS 60 0 12 270
1899241N17303 1899 29 NA NA NOT_NAMED 1899-08-29 15:00:00 TS 16.7999 -59.1075 main 706 645 P_____________ AL041899 16.7999 -59.1075 TS 60 0 11 270
1899241N17303 1899 29 NA NA NOT_NAMED 1899-08-29 18:00:00 TS 16.8000 -59.7000 60 hurdat_atl main 645 593 O_____________ hurdat_atl AL041899 16.8000 -59.7000 TS 60 0 11 270
1899241N17303 1899 29 NA NA NOT_NAMED 1899-08-29 21:00:00 TS 16.7998 -60.2575 main 583 532 P_____________ AL041899 16.7998 -60.2575 TS 62 0 11 270
1899241N17303 1899 29 NA CS NOT_NAMED 1899-08-30 00:00:00 TS 16.8000 -60.8000 65 hurdat_atl main 532 482 O_____________ hurdat_atl AL041899 16.8000 -60.8000 HU 65 1 10 270
1899241N17303 1899 29 NA CS NOT_NAMED 1899-08-30 03:00:00 TS 16.8074 -61.3499 main 482 422 P_____________ AL041899 16.8074 -61.3499 HU 67 1 11 270
1899241N17303 1899 29 NA CS NOT_NAMED 1899-08-30 06:00:00 TS 16.8000 -61.9000 70 hurdat_atl main 422 373 O_____________ hurdat_atl AL041899 16.8000 -61.9000 HU 70 1 11 267
1899241N17303 1899 29 NA CS NOT_NAMED 1899-08-30 09:00:00 TS 16.7574 -62.4500 main 364 322 P_____________ AL041899 16.7574 -62.4500 HU 70 1 11 265
1899241N17303 1899 29 NA CS NOT_NAMED 1899-08-30 12:00:00 TS 16.7000 -63.0000 70 hurdat_atl main 322 285 O_____________ hurdat_atl AL041899 16.7000 -63.0000 HU 70 1 10 264
1899241N17303 1899 29 NA CS NOT_NAMED 1899-08-30 15:00:00 TS 16.6422 -63.5350 main 285 239 P_____________ AL041899 16.6422 -63.5350 HU 70 1 11 265
1899241N17303 1899 29 NA CS NOT_NAMED 1899-08-30 18:00:00 TS 16.6000 -64.1000 70 hurdat_atl main 239 195 O_____________ hurdat_atl AL041899 16.6000 -64.1000 HU 70 1 12 268
1899241N17303 1899 29 NA CS NOT_NAMED 1899-08-30 21:00:00 TS 16.5924 -64.7349 main 195 162 P_____________ AL041899 16.5924 -64.7349 HU 70 1 12 270
1899241N17303 1899 29 NA CS NOT_NAMED 1899-08-31 00:00:00 TS 16.6000 -65.4000 70 hurdat_atl main 162 147 O_____________ hurdat_atl AL041899 16.6000 -65.4000 HU 70 1 13 271
1899241N17303 1899 29 NA CS NOT_NAMED 1899-08-31 03:00:00 TS 16.6073 -66.0499 main 147 145 P_____________ AL041899 16.6073 -66.0499 HU 70 1 12 270
1899241N17303 1899 29 NA CS NOT_NAMED 1899-08-31 06:00:00 TS 16.6000 -66.7000 70 hurdat_atl main 147 145 O_____________ hurdat_atl AL041899 16.6000 -66.7000 HU 70 1 13 267
1899241N17303 1899 29 NA CS NOT_NAMED 1899-08-31 09:00:00 TS 16.5425 -67.3727 main 158 158 P_____________ AL041899 16.5425 -67.3727 HU 70 1 13 265
1899241N17303 1899 29 NA CS NOT_NAMED 1899-08-31 12:00:00 TS 16.5000 -68.0000 70 hurdat_atl main 178 178 O_____________ hurdat_atl AL041899 16.5000 -68.0000 HU 70 1 11 270
1899241N17303 1899 29 NA CS NOT_NAMED 1899-08-31 15:00:00 TS 16.5347 -68.5224 main 190 179 P_____________ AL041899 16.5347 -68.5224 HU 70 1 10 276
1899241N17303 1899 29 NA CS NOT_NAMED 1899-08-31 18:00:00 TS 16.6000 -69.0000 70 hurdat_atl main 180 180 O_____________ hurdat_atl AL041899 16.6000 -69.0000 HU 70 1 9 276
1899241N17303 1899 29 NA CS NOT_NAMED 1899-08-31 21:00:00 TS 16.6349 -69.5001 main 193 169 P_____________ AL041899 16.6349 -69.5001 HU 70 1 10 276
1899241N17303 1899 29 NA CS NOT_NAMED 1899-09-01 00:00:00 TS 16.7000 -70.0000 70 hurdat_atl main 169 130 O_____________ hurdat_atl AL041899 16.7000 -70.0000 HU 70 1 10 281
1899241N17303 1899 29 NA CS NOT_NAMED 1899-09-01 03:00:00 TS 16.8199 -70.5001 main 130 79 P_____________ AL041899 16.8199 -70.5001 HU 70 1 10 287
1899241N17303 1899 29 NA CS NOT_NAMED 1899-09-01 06:00:00 TS 17.0000 -71.0000 70 hurdat_atl main 79 46 O_____________ hurdat_atl AL041899 17.0000 -71.0000 HU 70 1 11 290
1899241N17303 1899 29 NA CS NOT_NAMED 1899-09-01 09:00:00 TS 17.1977 -71.5599 main 49 46 P_____________ AL041899 17.1977 -71.5599 HU 70 1 11 298
1899241N17303 1899 29 NA CS NOT_NAMED 1899-09-01 12:00:00 TS 17.5000 -72.0000 70 hurdat_atl main 54 22 O_____________ hurdat_atl AL041899 17.5000 -72.0000 HU 70 1 10 323
1899241N17303 1899 29 NA CS NOT_NAMED 1899-09-01 15:00:00 TS 17.9848 -72.1826 main 22 0 P_____________ AL041899 17.9848 -72.1826 HU 62 0 10 349
1899241N17303 1899 29 NA NA NOT_NAMED 1899-09-01 18:00:00 TS 18.5000 -72.2000 55 hurdat_atl main 0 0 O_____________ hurdat_atl AL041899 18.5000 -72.2000 TS 55 0 9 1
1899241N17303 1899 29 NA NA NOT_NAMED 1899-09-01 21:00:00 TS 18.8650 -72.1801 main 0 0 P_____________ AL041899 18.8650 -72.1801 TS 47 0 7 8
1899241N17303 1899 29 NA NA NOT_NAMED 1899-09-02 00:00:00 TS 19.2000 -72.1000 40 hurdat_atl main 0 0 O_____________ hurdat_atl AL041899 19.2000 -72.1000 TS 40 0 8 12
1899241N17303 1899 29 NA NA NOT_NAMED 1899-09-02 03:00:00 TS 19.6000 -72.0075 main 0 0 P_____________ AL041899 19.6000 -72.0075 TS 45 0 8 13
1899241N17303 1899 29 NA NA NOT_NAMED 1899-09-02 06:00:00 TS 20.0000 -71.9000 50 hurdat_atl main 24 24 O_____________ hurdat_atl AL041899 20.0000 -71.9000 TS 50 0 8 13
1899241N17303 1899 29 NA NA NOT_NAMED 1899-09-02 09:00:00 TS 20.3349 -71.8222 main 55 55 P_____________ AL041899 20.3349 -71.8222 TS 52 0 7 15
1899241N17303 1899 29 NA NA NOT_NAMED 1899-09-02 12:00:00 TS 20.7000 -71.7000 55 hurdat_atl main 100 100 O_____________ hurdat_atl AL041899 20.7000 -71.7000 TS 55 0 9 21
1899241N17303 1899 29 NA NA NOT_NAMED 1899-09-02 15:00:00 TS 21.1851 -71.4652 main 155 155 P_____________ AL041899 21.1851 -71.4652 TS 57 0 11 25
1899241N17303 1899 29 NA NA NOT_NAMED 1899-09-02 18:00:00 TS 21.7000 -71.2000 60 hurdat_atl main 194 194 O_____________ hurdat_atl AL041899 21.7000 -71.2000 TS 60 0 11 24
1899241N17303 1899 29 NA NA NOT_NAMED 1899-09-02 21:00:00 TS 22.1499 -70.9997 main 229 229 P_____________ AL041899 22.1499 -70.9997 TS 62 0 10 22
1899241N17303 1899 29 NA NA NOT_NAMED 1899-09-03 00:00:00 TS 22.6000 -70.8000 65 hurdat_atl main 275 275 O_____________ hurdat_atl AL041899 22.6000 -70.8000 HU 65 1 10 24
1899241N17303 1899 29 NA NA NOT_NAMED 1899-09-03 03:00:00 TS 23.1001 -70.5426 main 333 333 P_____________ AL041899 23.1001 -70.5426 HU 70 1 11 25
1899241N17303 1899 29 NA NA NOT_NAMED 1899-09-03 06:00:00 TS 23.6000 -70.3000 75 hurdat_atl main 385 385 O_____________ hurdat_atl AL041899 23.6000 -70.3000 HU 75 1 10 20
1899241N17303 1899 29 NA NA NOT_NAMED 1899-09-03 09:00:00 TS 24.0348 -70.1642 main 424 424 P_____________ AL041899 24.0348 -70.1642 HU 80 1 9 17
1899241N17303 1899 29 NA NA NOT_NAMED 1899-09-03 12:00:00 TS 24.5000 -70.0000 85 hurdat_atl main 480 480 O_____________ hurdat_atl AL041899 24.5000 -70.0000 HU 85 2 11 23
1899241N17303 1899 29 NA NA NOT_NAMED 1899-09-03 15:00:00 TS 25.0702 -69.6727 main 551 551 P_____________ AL041899 25.0702 -69.6727 HU 87 2 14 28
1899241N17303 1899 29 NA NA NOT_NAMED 1899-09-03 18:00:00 TS 25.7000 -69.3000 90 hurdat_atl main 628 628 O_____________ hurdat_atl AL041899 25.7000 -69.3000 HU 90 2 14 26
1899241N17303 1899 29 NA NA NOT_NAMED 1899-09-03 21:00:00 TS 26.3499 -68.9922 main 700 700 P_____________ AL041899 26.3499 -68.9922 HU 90 2 14 23
1899241N17303 1899 29 NA NA NOT_NAMED 1899-09-04 00:00:00 TS 27.0000 -68.7000 90 hurdat_atl main 781 781 O_____________ hurdat_atl AL041899 27.0000 -68.7000 HU 90 2 14 23
1899241N17303 1899 29 NA NA NOT_NAMED 1899-09-04 03:00:00 TS 27.5999 -68.3995 main 853 853 P_____________ AL041899 27.5999 -68.3995 HU 90 2 13 24
1899241N17303 1899 29 NA NA NOT_NAMED 1899-09-04 06:00:00 TS 28.2000 -68.1000 90 hurdat_atl main 925 925 O_____________ hurdat_atl AL041899 28.2000 -68.1000 HU 90 2 13 22
1899241N17303 1899 29 NA NA NOT_NAMED 1899-09-04 09:00:00 TS 28.7818 -67.8647 main 992 992 P_____________ AL041899 28.7818 -67.8647 HU 87 2 14 22
1899241N17303 1899 29 NA NA NOT_NAMED 1899-09-04 12:00:00 TS 29.5000 -67.5000 85 hurdat_atl main 1021 993 O_____________ hurdat_atl AL041899 29.5000 -67.5000 HU 85 2 20 27
1899241N17303 1899 29 NA NA NOT_NAMED 1899-09-04 15:00:00 TS 30.5197 -66.8631 main 993 983 P_____________ AL041899 30.5197 -66.8631 HU 82 1 25 32
1899241N17303 1899 29 NA NA NOT_NAMED 1899-09-04 18:00:00 TS 31.6000 -66.0000 80 hurdat_atl main 993 993 O_____________ hurdat_atl AL041899 31.6000 -66.0000 HU 80 1 26 38
1899241N17303 1899 29 NA NA NOT_NAMED 1899-09-04 21:00:00 TS 32.5174 -65.0022 main 1031 1031 P_____________ AL041899 32.5174 -65.0022 HU 77 1 25 46
1899241N17303 1899 29 NA NA NOT_NAMED 1899-09-05 00:00:00 TS 33.3000 -63.9000 75 hurdat_atl main 1077 1062 O_____________ hurdat_atl AL041899 33.3000 -63.9000 HU 75 1 23 52
1899241N17303 1899 29 NA NA NOT_NAMED 1899-09-05 03:00:00 TS 33.9517 -62.8054 main 1063 1046 P_____________ AL041899 33.9517 -62.8054 HU 70 1 22 57
1899241N17303 1899 29 NA NA NOT_NAMED 1899-09-05 06:00:00 TS 34.5000 -61.7000 65 hurdat_atl main 1048 1024 O_____________ hurdat_atl AL041899 34.5000 -61.7000 HU 65 1 22 60
1899241N17303 1899 29 NA NA NOT_NAMED 1899-09-05 09:00:00 TS 35.0456 -60.5254 main 1031 1014 P_____________ AL041899 35.0456 -60.5254 HU 62 0 21 61
1899241N17303 1899 29 NA NA NOT_NAMED 1899-09-05 12:00:00 ET 35.5000 -59.5000 60 hurdat_atl main 1018 1011 O_____________ hurdat_atl AL041899 35.5000 -59.5000 EX 60 -4 16 60
1899241N17303 1899 29 NA NA NOT_NAMED 1899-09-05 15:00:00 ET 35.8357 -58.8229 main 1020 1010 P_____________ AL041899 35.8357 -58.8229 EX 60 -4 11 58
1899241N17303 1899 29 NA NA NOT_NAMED 1899-09-05 18:00:00 ET 36.1000 -58.3000 60 hurdat_atl main 1015 1011 O_____________ hurdat_atl AL041899 36.1000 -58.3000 EX 60 -4 10 60
1899241N17303 1899 29 NA NA NOT_NAMED 1899-09-05 21:00:00 ET 36.3496 -57.7067 main 1028 1010 P_____________ AL041899 36.3496 -57.7067 EX 60 -4 11 63
1899241N17303 1899 29 NA NA NOT_NAMED 1899-09-06 00:00:00 ET 36.6000 -57.1000 60 hurdat_atl main 1013 999 O_____________ hurdat_atl AL041899 36.6000 -57.1000 EX 60 -4 11 62
1899241N17303 1899 29 NA NA NOT_NAMED 1899-09-06 03:00:00 ET 36.8771 -56.4642 main 999 989 P_____________ AL041899 36.8771 -56.4642 EX 60 -4 12 60
1899241N17303 1899 29 NA NA NOT_NAMED 1899-09-06 06:00:00 ET 37.2000 -55.8000 60 hurdat_atl main 993 980 O_____________ hurdat_atl AL041899 37.2000 -55.8000 EX 60 -4 13 57
1899241N17303 1899 29 NA NA NOT_NAMED 1899-09-06 09:00:00 ET 37.5772 -55.1070 main 980 958 P_____________ AL041899 37.5772 -55.1070 EX 60 -4 14 54
1899241N17303 1899 29 NA NA NOT_NAMED 1899-09-06 12:00:00 ET 38.0000 -54.4000 60 hurdat_atl main 958 911 O_____________ hurdat_atl AL041899 38.0000 -54.4000 EX 60 -4 14 52
1899241N17303 1899 29 NA NA NOT_NAMED 1899-09-06 15:00:00 ET 38.4422 -53.6920 main 911 856 P_____________ AL041899 38.4422 -53.6920 EX 60 -4 14 51
1899241N17303 1899 29 NA NA NOT_NAMED 1899-09-06 18:00:00 ET 38.9000 -53.0000 60 hurdat_atl main 856 814 O_____________ hurdat_atl AL041899 38.9000 -53.0000 EX 60 -4 14 50
1899241N17303 1899 29 NA NA NOT_NAMED 1899-09-06 21:00:00 ET 39.3423 -52.3193 main 814 765 P_____________ AL041899 39.3423 -52.3193 EX 60 -4 13 48
1899241N17303 1899 29 NA NA NOT_NAMED 1899-09-07 00:00:00 ET 39.8000 -51.7000 60 hurdat_atl main 765 718 O_____________ hurdat_atl AL041899 39.8000 -51.7000 EX 60 -4 13 43
1899241N17303 1899 29 NA NA NOT_NAMED 1899-09-07 03:00:00 ET 40.2920 -51.1692 main 718 675 P_____________ AL041899 40.2920 -51.1692 EX 60 -4 13 37
1899241N17303 1899 29 NA NA NOT_NAMED 1899-09-07 06:00:00 ET 40.8000 -50.7000 60 hurdat_atl main 675 632 O_____________ hurdat_atl AL041899 40.8000 -50.7000 EX 60 -4 12 35
1899241N17303 1899 29 NA NA NOT_NAMED 1899-09-07 09:00:00 ET 41.2923 -50.2342 main 635 597 P_____________ AL041899 41.2923 -50.2342 EX 60 -4 12 34
1899241N17303 1899 29 NA NA NOT_NAMED 1899-09-07 12:00:00 ET 41.8000 -49.8000 60 hurdat_atl main 597 564 O_____________ hurdat_atl AL041899 41.8000 -49.8000 EX 60 -4 12 31
1899241N17303 1899 29 NA NA NOT_NAMED 1899-09-07 15:00:00 ET 42.3348 -49.3916 main 564 527 P_____________ AL041899 42.3348 -49.3916 EX 57 -4 12 28
1899241N17303 1899 29 NA NA NOT_NAMED 1899-09-07 18:00:00 ET 42.9000 -49.0000 55 hurdat_atl main 527 498 O_____________ hurdat_atl AL041899 42.9000 -49.0000 EX 55 -4 13 27
1899241N17303 1899 29 NA NA NOT_NAMED 1899-09-07 21:00:00 ET 43.4850 -48.5847 main 498 477 P_____________ AL041899 43.4850 -48.5847 EX 52 -4 13 26
1899241N17303 1899 29 NA NA NOT_NAMED 1899-09-08 00:00:00 ET 44.1000 -48.2000 50 hurdat_atl main 477 457 O_____________ hurdat_atl AL041899 44.1000 -48.2000 EX 50 -4 14 22
1899241N17303 1899 29 NA NA NOT_NAMED 1899-09-08 03:00:00 ET 44.7423 -47.8767 main 457 439 P_____________ AL041899 44.7423 -47.8767 EX 47 -4 14 18
1899241N17303 1899 29 NA NA NOT_NAMED 1899-09-08 06:00:00 ET 45.4000 -47.6000 45 hurdat_atl main 442 432 O_____________ hurdat_atl AL041899 45.4000 -47.6000 EX 45 -4 14 17
1899241N17303 1899 29 NA NA NOT_NAMED 1899-09-08 09:00:00 ET 46.0425 -47.3127 main 435 422 P_____________ AL041899 46.0425 -47.3127 EX 42 -4 13 15
1899241N17303 1899 29 NA NA NOT_NAMED 1899-09-08 12:00:00 ET 46.7000 -47.1000 40 hurdat_atl main 423 416 O_____________ hurdat_atl AL041899 46.7000 -47.1000 EX 40 -4 14 9
1899241N17303 1899 29 NA NA NOT_NAMED 1899-09-08 15:00:00 ET 47.3900 -47.0119 main 419 418 P_____________ AL041899 47.3900 -47.0119 EX 40 -4 14 3
1899241N17303 1899 29 NA NA NOT_NAMED 1899-09-08 18:00:00 ET 48.1000 -47.0000 40 hurdat_atl main 421 O_____________ hurdat_atl AL041899 48.1000 -47.0000 EX 40 -4 14 0

IBTrACS Databaseについて

本データベースは、米国NOAAが公開する1842年以降の世界の熱帯低気圧のベストトラックデータアーカイブInternational Best Track Archive for Climate Stewardship (IBTrACS)を、ウェブで閲覧しやすい形式に変換したものです。

最終更新日:2021-12-03